Time;durP1;ratioP1;P1;durP2;ratioP2;P2;SDS_P1;SDS_P2;PMS_P1;PMS_P2;Temp;Humidity;BMP_temperature;BMP_pressure;BME280_temperature;BME280_humidity;BME280_pressure;Samples;Min_cycle;Max_cycle;Signal;HPM_P1;HPM_P2
2022/09/23 00:01:06;;;;;;;12.40;6.00;;;;;;;8.70;90.91;100207.56;4440652;32;34611;-77
2022/09/23 00:03:52;;;;;;;10.43;5.37;;;;;;;8.44;93.90;100199.56;4452328;32;35073;-77
2022/09/23 00:06:39;;;;;;;16.10;7.10;;;;;;;9.10;89.33;100200.13;4451530;32;35549;-77
2022/09/23 00:09:26;;;;;;;15.70;7.43;;;;;;;9.17;87.84;100201.44;4451473;32;35062;-78
2022/09/23 00:12:12;;;;;;;15.63;8.05;;;;;;;8.96;89.94;100202.72;4451987;32;34829;-78
2022/09/23 00:14:58;;;;;;;13.35;6.43;;;;;;;9.01;89.47;100202.66;4440233;32;34937;-77
2022/09/23 00:17:45;;;;;;;14.60;7.62;;;;;;;8.49;92.84;100202.25;4430613;32;34704;-78
2022/09/23 00:20:35;;;;;;;17.37;8.10;;;;;;;8.88;90.01;100190.50;4452257;32;35039;-77
2022/09/23 00:23:21;;;;;;;14.48;6.00;;;;;;;8.75;90.28;100188.41;4452061;32;34608;-77
2022/09/23 00:26:14;;;;;;;10.55;5.60;;;;;;;8.66;91.24;100190.13;4451763;32;35913;-78
2022/09/23 00:29:00;;;;;;;11.85;5.03;;;;;;;8.59;92.41;100195.09;4452285;32;34602;-78
2022/09/23 00:31:46;;;;;;;10.00;4.62;;;;;;;8.64;91.69;100186.84;4451918;32;35069;-77
2022/09/23 00:34:32;;;;;;;9.75;4.78;;;;;;;8.63;92.14;100183.31;4451300;32;35526;-78
2022/09/23 00:37:19;;;;;;;10.75;4.95;;;;;;;8.74;90.61;100181.31;4452529;32;35138;-78
2022/09/23 00:40:07;;;;;;;8.98;4.62;;;;;;;8.63;90.40;100177.03;4441080;32;34644;-78
2022/09/23 00:42:53;;;;;;;8.23;4.32;;;;;;;8.45;92.08;100178.50;4440844;32;35038;-78
2022/09/23 00:45:45;;;;;;;10.55;4.97;;;;;;;8.61;91.21;100169.13;4451093;32;34673;-78
2022/09/23 00:48:32;;;;;;;11.12;5.32;;;;;;;8.45;92.76;100164.84;4440131;32;34163;-78
2022/09/23 00:51:21;;;;;;;8.23;5.07;;;;;;;8.34;93.05;100164.91;4452311;32;35965;-78
2022/09/23 00:54:08;;;;;;;11.05;6.32;;;;;;;8.46;92.94;100167.31;4452300;32;35077;-78
2022/09/23 00:56:55;;;;;;;10.27;4.62;;;;;;;7.45;98.23;100169.41;4452464;32;35525;-77
2022/09/23 00:59:42;;;;;;;11.12;4.87;;;;;;;7.99;97.02;100160.47;4440390;32;34147;-78
2022/09/23 01:02:28;;;;;;;8.95;4.50;;;;;;;8.42;93.24;100158.03;4439127;32;34565;-77
2022/09/23 01:05:16;;;;;;;8.93;5.03;;;;;;;8.61;90.80;100165.56;4440103;32;35044;-78
2022/09/23 01:08:02;;;;;;;12.70;5.35;;;;;;;8.55;90.20;100167.53;4440712;32;34898;-78
2022/09/23 01:11:02;;;;;;;8.60;4.70;;;;;;;8.30;91.94;100171.22;4450975;32;35286;-77
2022/09/23 01:14:09;;;;;;;10.35;4.80;;;;;;;8.42;91.60;100173.63;4428627;32;33662;-78
2022/09/23 01:17:32;;;;;;;8.65;4.78;;;;;;;8.30;92.41;100172.03;4452097;32;35005;-78
2022/09/23 01:20:36;;;;;;;8.18;4.43;;;;;;;8.53;90.67;100167.00;4426262;32;33553;-78
2022/09/23 01:23:55;;;;;;;9.48;4.72;;;;;;;8.48;91.32;100172.47;4439406;32;34113;-78
2022/09/23 01:26:47;;;;;;;11.35;6.00;;;;;;;8.57;89.81;100168.06;4426672;32;34579;-78
2022/09/23 01:30:22;;;;;;;9.02;5.15;;;;;;;8.39;89.94;100175.00;4451645;32;34940;-78
2022/09/23 01:33:36;;;;;;;8.40;5.18;;;;;;;8.26;90.94;100172.87;4431885;32;35062;-78
2022/09/23 01:36:38;;;;;;;10.88;5.37;;;;;;;8.19;92.13;100175.09;4450569;32;33931;-78
2022/09/23 01:39:37;;;;;;;8.20;4.62;;;;;;;7.87;93.09;100173.63;4451010;32;33696;-78
2022/09/23 01:42:36;;;;;;;7.35;4.22;;;;;;;8.24;92.34;100169.63;4439498;32;35964;-78
2022/09/23 01:45:43;;;;;;;10.13;5.12;;;;;;;8.27;90.95;100174.50;4440069;32;34561;-78
2022/09/23 01:48:59;;;;;;;8.73;4.15;;;;;;;8.15;91.36;100174.03;4439399;32;35101;-77
2022/09/23 01:51:50;;;;;;;7.20;4.55;;;;;;;8.07;92.41;100170.78;4436522;32;34529;-77
2022/09/23 01:54:44;;;;;;;8.43;4.65;;;;;;;8.16;91.39;100170.22;4439716;32;34949;-78
2022/09/23 01:57:39;;;;;;;10.15;4.75;;;;;;;8.18;90.06;100168.81;4450117;32;34745;-78
2022/09/23 02:00:29;;;;;;;9.50;4.68;;;;;;;8.10;90.70;100172.97;4438250;32;34246;-77
2022/09/23 02:03:25;;;;;;;10.00;5.85;;;;;;;8.05;90.94;100162.09;4438552;32;34268;-78
2022/09/23 02:06:20;;;;;;;10.35;4.90;;;;;;;7.87;92.89;100165.44;4434154;32;35958;-78
2022/09/23 02:09:11;;;;;;;10.43;4.95;;;;;;;7.84;94.21;100172.28;4437682;32;35745;-78
2022/09/23 02:12:04;;;;;;;11.32;5.47;;;;;;;8.08;92.25;100171.59;4439845;32;34321;-77
2022/09/23 02:15:02;;;;;;;10.30;5.53;;;;;;;7.94;92.62;100174.16;4429131;32;33552;-78
2022/09/23 02:17:51;;;;;;;10.20;5.05;;;;;;;7.82;93.71;100163.53;4449532;32;33936;-72
2022/09/23 02:20:40;;;;;;;10.15;5.37;;;;;;;7.84;92.65;100168.72;4448234;32;34686;-73
2022/09/23 02:23:31;;;;;;;8.63;4.43;;;;;;;7.74;93.92;100168.75;4435926;32;33225;-73
2022/09/23 02:26:24;;;;;;;9.68;4.80;;;;;;;7.77;93.31;100165.47;4426368;32;34682;-72
2022/09/23 02:29:23;;;;;;;10.60;4.60;;;;;;;7.82;93.57;100160.00;4421300;32;36109;-72
2022/09/23 02:32:29;;;;;;;8.60;5.00;;;;;;;7.88;92.99;100170.62;4420564;32;35566;-73
2022/09/23 02:35:31;;;;;;;9.48;4.85;;;;;;;7.94;91.77;100162.41;4434719;32;33814;-72
2022/09/23 02:38:39;;;;;;;10.13;4.68;;;;;;;7.80;92.28;100163.03;4436694;32;34312;-73
2022/09/23 02:41:29;;;;;;;12.37;4.68;;;;;;;7.81;91.10;100158.38;4428453;32;35003;-73
2022/09/23 02:44:17;;;;;;;7.60;4.30;;;;;;;7.68;91.63;100165.25;4447352;32;34710;-72
2022/09/23 02:47:03;;;;;;;8.68;4.30;;;;;;;7.63;92.69;100165.28;4435580;32;35135;-72
2022/09/23 02:49:50;;;;;;;8.75;4.70;;;;;;;7.44;94.58;100163.16;4425359;32;35193;-71
2022/09/23 02:52:37;;;;;;;9.27;4.70;;;;;;;7.61;94.23;100165.53;4435676;32;34938;-72
2022/09/23 02:55:30;;;;;;;8.75;4.07;;;;;;;7.71;93.17;100175.59;4434367;32;34777;-72
2022/09/23 02:58:16;;;;;;;7.62;4.45;;;;;;;7.58;93.35;100165.28;4438967;32;35109;-72
2022/09/23 03:01:06;;;;;;;9.32;4.65;;;;;;;7.59;93.82;100162.28;4450084;32;34218;-72
2022/09/23 03:03:58;;;;;;;9.18;4.78;;;;;;;7.55;94.29;100166.66;4449906;32;35116;-72
2022/09/23 03:07:00;;;;;;;11.15;5.03;;;;;;;7.62;94.46;100167.16;4449333;32;35773;-72
2022/09/23 03:09:50;;;;;;;10.60;4.87;;;;;;;7.71;92.60;100172.06;4427837;32;34316;-72
2022/09/23 03:12:50;;;;;;;10.00;4.78;;;;;;;7.61;92.30;100164.75;4438890;32;33811;-72
2022/09/23 03:16:35;;;;;;;9.13;5.15;;;;;;;7.51;93.28;100168.28;4442294;32;34818;-72
2022/09/23 03:19:31;;;;;;;13.38;4.72;;;;;;;7.52;93.87;100167.22;4419400;32;34627;-72
2022/09/23 03:22:29;;;;;;;9.07;5.20;;;;;;;7.62;93.16;100167.16;4449363;32;34304;-72
2022/09/23 03:25:17;;;;;;;11.43;5.40;;;;;;;7.59;93.57;100167.72;4438843;32;34573;-72
2022/09/23 03:28:06;;;;;;;11.88;5.50;;;;;;;7.55;94.06;100166.66;4437788;32;34933;-72
2022/09/23 03:30:53;;;;;;;11.48;5.87;;;;;;;7.35;95.12;100166.72;4437297;32;34706;-72
2022/09/23 03:33:47;;;;;;;13.23;5.70;;;;;;;7.14;96.92;100161.31;4414861;32;35009;-72
2022/09/23 03:36:50;;;;;;;10.48;5.30;;;;;;;4.72;100.00;100166.25;4433479;32;34534;-72
2022/09/23 03:39:40;;;;;;;11.85;5.32;;;;;;;6.18;100.00;100170.28;4448733;32;34960;-72
2022/09/23 03:42:29;;;;;;;10.23;4.72;;;;;;;6.49;100.00;100165.72;4433539;32;34835;-72
2022/09/23 03:45:22;;;;;;;11.63;4.97;;;;;;;6.48;100.00;100161.34;4425946;32;33429;-72
2022/09/23 03:48:08;;;;;;;8.98;4.37;;;;;;;5.29;100.00;100172.87;4447374;32;34292;-72
2022/09/23 03:50:55;;;;;;;8.48;4.35;;;;;;;6.40;100.00;100167.31;4449205;32;36017;-72
2022/09/23 03:53:41;;;;;;;8.20;4.70;;;;;;;7.09;100.00;100166.78;4442308;32;37072;-76
2022/09/23 03:56:27;;;;;;;9.07;4.68;;;;;;;7.39;99.08;100168.59;4447538;32;34697;-76
2022/09/23 03:59:14;;;;;;;9.23;4.55;;;;;;;7.39;97.79;100168.59;4450081;32;35691;-76
2022/09/23 04:02:01;;;;;;;11.18;5.70;;;;;;;7.45;97.94;100166.69;4430172;32;34664;-76
2022/09/23 04:04:47;;;;;;;12.68;6.97;;;;;;;7.48;97.36;100171.59;4447697;32;35368;-76
2022/09/23 04:07:33;;;;;;;13.55;7.00;;;;;;;7.43;97.97;100171.63;4450058;32;33293;-76
2022/09/23 04:10:20;;;;;;;11.15;5.50;;;;;;;7.41;97.92;100176.53;4449854;32;35600;-76
2022/09/23 04:13:05;;;;;;;12.82;5.53;;;;;;;7.39;98.00;100175.97;4449753;32;36024;-76
2022/09/23 04:15:52;;;;;;;10.32;5.43;;;;;;;7.35;98.75;100177.62;4437607;32;35283;-76
2022/09/23 04:18:37;;;;;;;14.18;5.28;;;;;;;7.43;98.16;100166.97;4450202;32;33787;-76
2022/09/23 04:21:24;;;;;;;11.45;5.28;;;;;;;7.41;98.00;100171.06;4437007;32;34541;-76
2022/09/23 04:24:11;;;;;;;11.40;5.45;;;;;;;7.44;96.94;100171.31;4448988;32;35026;-76
2022/09/23 04:26:58;;;;;;;12.48;5.93;;;;;;;7.37;97.02;100175.44;4444820;32;34620;-75
2022/09/23 04:29:44;;;;;;;10.30;5.15;;;;;;;7.32;98.20;100172.75;4425883;32;34299;-76
2022/09/23 04:32:30;;;;;;;9.65;5.03;;;;;;;7.40;98.36;100172.19;4448363;32;34598;-76
2022/09/23 04:35:16;;;;;;;11.82;5.80;;;;;;;7.36;98.85;100171.06;4449987;32;35017;-76
2022/09/23 04:38:03;;;;;;;12.00;5.43;;;;;;;7.12;100.00;100168.94;4428077;32;35232;-76
2022/09/23 04:40:49;;;;;;;11.95;5.47;;;;;;;7.19;100.00;100187.75;4449515;32;35740;-76
2022/09/23 04:43:36;;;;;;;9.07;5.50;;;;;;;7.46;99.64;100184.69;4449834;32;35615;-76
2022/09/23 04:46:22;;;;;;;10.40;5.03;;;;;;;7.31;100.00;100180.06;4449883;32;34682;-76
2022/09/23 04:49:08;;;;;;;12.27;5.68;;;;;;;7.30;100.00;100180.38;4443492;32;35560;-76
2022/09/23 04:51:55;;;;;;;11.57;5.72;;;;;;;6.99;100.00;100189.37;4442770;32;35153;-76
2022/09/23 04:54:41;;;;;;;10.57;5.35;;;;;;;7.28;100.00;100188.00;4449253;32;34651;-75
2022/09/23 04:57:28;;;;;;;13.82;5.60;;;;;;;7.32;100.00;100189.91;4438092;32;34462;-76
2022/09/23 05:00:15;;;;;;;11.55;5.87;;;;;;;6.60;100.00;100182.84;4449714;32;34893;-75
2022/09/23 05:03:01;;;;;;;16.37;6.78;;;;;;;5.10;100.00;100193.41;4440023;32;34674;-76
2022/09/23 05:05:47;;;;;;;14.05;7.00;;;;;;;5.01;100.00;100200.38;4434534;32;35497;-76
2022/09/23 05:08:34;;;;;;;12.15;6.85;;;;;;;4.53;100.00;100204.91;4441201;32;34919;-75
2022/09/23 05:11:22;;;;;;;13.45;6.80;;;;;;;4.77;100.00;100210.78;4437576;32;34689;-75
2022/09/23 05:14:08;;;;;;;14.57;7.00;;;;;;;4.59;100.00;100212.00;4437665;32;33757;-75
2022/09/23 05:16:55;;;;;;;12.82;7.22;;;;;;;4.76;100.00;100206.47;4436997;32;34684;-75
2022/09/23 05:19:41;;;;;;;20.40;7.68;;;;;;;5.39;100.00;100212.88;4437039;32;34974;-75
2022/09/23 05:22:29;;;;;;;16.98;7.97;;;;;;;4.38;100.00;100208.25;4449584;32;34234;-76
2022/09/23 05:25:15;;;;;;;15.73;7.62;;;;;;;4.77;100.00;100211.62;4449682;32;34153;-76
2022/09/23 05:28:01;;;;;;;17.15;8.93;;;;;;;4.92;100.00;100211.75;4449580;32;34710;-76
2022/09/23 05:30:47;;;;;;;16.58;8.57;;;;;;;4.31;100.00;100213.91;4437400;32;34948;-76
2022/09/23 05:33:35;;;;;;;16.85;8.75;;;;;;;5.06;100.00;100214.81;4429871;32;34654;-76
2022/09/23 05:36:22;;;;;;;13.68;7.53;;;;;;;4.63;100.00;100222.06;4433389;32;34091;-76
2022/09/23 05:39:08;;;;;;;12.82;6.78;;;;;;;5.25;100.00;100220.69;4423522;32;35637;-76
2022/09/23 05:41:55;;;;;;;14.48;7.15;;;;;;;5.51;100.00;100220.84;4443050;32;35099;-76
2022/09/23 05:44:42;;;;;;;16.35;7.20;;;;;;;5.05;100.00;100224.06;4425169;32;35287;-76
2022/09/23 05:47:28;;;;;;;16.37;7.55;;;;;;;5.91;100.00;100225.66;4444009;32;33095;-75
2022/09/23 05:50:14;;;;;;;14.95;7.68;;;;;;;5.48;100.00;100227.63;4437265;32;34583;-75
2022/09/23 05:53:01;;;;;;;12.48;7.25;;;;;;;6.54;100.00;100217.44;4436982;32;34890;-76
2022/09/23 05:55:47;;;;;;;14.87;7.40;;;;;;;7.02;100.00;100218.00;4447998;32;34826;-76
2022/09/23 05:58:34;;;;;;;14.75;7.55;;;;;;;7.09;100.00;100217.75;4448091;32;35299;-76
2022/09/23 06:01:26;;;;;;;14.13;7.30;;;;;;;7.63;100.00;100217.91;4437022;32;34173;-76
2022/09/23 06:04:13;;;;;;;12.60;7.20;;;;;;;7.24;100.00;100203.28;4448569;32;35629;-76
2022/09/23 06:06:59;;;;;;;18.62;7.75;;;;;;;6.26;100.00;100211.41;4447683;32;34403;-76
2022/09/23 06:09:49;;;;;;;16.37;8.10;;;;;;;5.97;100.00;100215.66;4433170;32;34233;-76
2022/09/23 06:12:35;;;;;;;12.65;7.25;;;;;;;6.69;100.00;100209.28;4444230;32;35552;-75
2022/09/23 06:15:22;;;;;;;15.32;8.88;;;;;;;6.62;100.00;100213.34;4433876;32;34677;-75
2022/09/23 06:18:10;;;;;;;17.92;8.38;;;;;;;6.63;100.00;100224.00;4444654;32;33765;-75
2022/09/23 06:21:00;;;;;;;12.93;7.30;;;;;;;7.06;100.00;100219.09;4432205;32;35038;-75
2022/09/23 06:23:46;;;;;;;12.07;7.35;;;;;;;7.03;100.00;100219.66;4434326;32;33526;-76
2022/09/23 06:26:34;;;;;;;13.30;6.47;;;;;;;7.24;100.00;100223.16;4434109;32;35856;-75
2022/09/23 06:29:20;;;;;;;14.07;7.40;;;;;;;6.95;100.00;100221.00;4425285;32;34032;-75
2022/09/23 06:32:07;;;;;;;12.93;6.40;;;;;;;6.87;100.00;100213.37;4432145;32;32724;-75
2022/09/23 06:34:53;;;;;;;10.15;5.53;;;;;;;7.27;100.00;100219.87;4449854;32;34546;-75
2022/09/23 06:37:39;;;;;;;11.32;5.82;;;;;;;7.50;100.00;100218.47;4438536;32;34616;-75
2022/09/23 06:40:25;;;;;;;11.73;6.53;;;;;;;7.89;100.00;100218.62;4449386;32;34724;-75
2022/09/23 06:43:12;;;;;;;12.45;6.03;;;;;;;8.21;100.00;100222.06;4447140;32;33993;-75
2022/09/23 06:45:59;;;;;;;12.32;5.82;;;;;;;8.38;100.00;100225.22;4438794;32;34212;-75
2022/09/23 06:48:46;;;;;;;9.85;5.65;;;;;;;9.17;100.00;100225.25;4437285;32;34630;-75
2022/09/23 06:51:32;;;;;;;11.90;6.07;;;;;;;8.92;100.00;100235.28;4449970;32;33700;-75
2022/09/23 06:54:19;;;;;;;10.55;5.85;;;;;;;9.71;100.00;100229.63;4449388;32;34457;-75
2022/09/23 06:57:05;;;;;;;14.48;7.45;;;;;;;10.16;100.00;100232.91;4446778;32;35856;-75
2022/09/23 06:59:51;;;;;;;13.62;6.37;;;;;;;9.91;100.00;100232.12;4432855;32;35645;-75
2022/09/23 07:02:40;;;;;;;10.27;6.40;;;;;;;10.00;100.00;100232.28;4449267;32;36247;-75
2022/09/23 07:05:27;;;;;;;10.07;6.20;;;;;;;10.50;100.00;100216.31;4433620;32;33879;-75
2022/09/23 07:08:13;;;;;;;8.75;4.87;;;;;;;10.62;100.00;100220.53;4447528;32;35428;-74
2022/09/23 07:11:03;;;;;;;9.35;5.10;;;;;;;10.91;99.37;100223.09;4441685;32;34539;-75
2022/09/23 07:13:49;;;;;;;7.90;4.32;;;;;;;11.16;98.12;100217.19;4419912;32;35043;-75
2022/09/23 07:16:36;;;;;;;7.60;4.62;;;;;;;10.99;97.64;100214.19;4447122;32;34198;-75
2022/09/23 07:19:23;;;;;;;7.97;4.55;;;;;;;11.37;96.78;100230.53;4446827;32;35248;-75
2022/09/23 07:22:09;;;;;;;7.90;4.15;;;;;;;11.44;96.24;100229.03;4433184;32;35566;-75
2022/09/23 07:24:56;;;;;;;8.25;4.00;;;;;;;11.86;95.57;100227.16;4450222;32;34309;-74
2022/09/23 07:27:42;;;;;;;7.95;4.68;;;;;;;11.36;96.04;100231.66;4435055;32;34853;-74
2022/09/23 07:30:28;;;;;;;8.60;4.20;;;;;;;11.35;97.81;100232.75;4447157;32;34535;-73
2022/09/23 07:33:15;;;;;;;7.28;3.95;;;;;;;11.79;97.26;100231.41;4449122;32;35938;-74
2022/09/23 07:36:17;;;;;;;6.77;4.50;;;;;;;12.28;94.68;100238.94;4445934;32;34685;-74
2022/09/23 07:39:04;;;;;;;8.05;4.40;;;;;;;12.27;95.44;100233.75;4432069;32;35072;-74
2022/09/23 07:41:51;;;;;;;8.18;4.53;;;;;;;12.33;94.91;100233.34;4449676;32;34706;-75
2022/09/23 07:44:37;;;;;;;10.82;4.57;;;;;;;12.39;94.86;100234.03;4433343;32;34869;-75
2022/09/23 07:47:23;;;;;;;10.73;4.70;;;;;;;12.42;96.00;100230.66;4437506;32;34523;-74
2022/09/23 07:50:10;;;;;;;8.25;4.75;;;;;;;12.68;96.02;100230.09;4432611;32;34944;-75
2022/09/23 07:52:56;;;;;;;10.52;4.37;;;;;;;13.11;91.85;100226.84;4425897;32;34592;-74
2022/09/23 07:55:50;;;;;;;8.30;4.37;;;;;;;13.33;88.36;100226.87;4436513;32;34818;-75
2022/09/23 07:58:36;;;;;;;9.05;4.62;;;;;;;12.67;90.99;100220.22;4435893;32;35124;-75
2022/09/23 08:01:23;;;;;;;7.20;3.90;;;;;;;13.16;90.87;100224.78;4434198;32;34706;-75
2022/09/23 08:04:15;;;;;;;6.82;3.62;;;;;;;14.13;90.29;100226.87;4433598;32;35620;-73
2022/09/23 08:07:03;;;;;;;7.70;3.78;;;;;;;13.77;87.83;100221.56;4434336;32;34763;-75
2022/09/23 08:09:49;;;;;;;;;;;;;;;14.11;86.20;100224.41;4446864;32;34243;-75
2022/09/23 08:12:35;;;;;;;;;;;;;;;14.01;84.79;100229.44;4430933;32;35002;-75
2022/09/23 08:15:21;;;;;;;;;;;;;;;13.70;84.84;100230.28;4448502;32;35031;-75
2022/09/23 08:18:08;;;;;;;;;;;;;;;13.68;84.57;100222.34;4438374;32;34771;-75
2022/09/23 08:20:54;;;;;;;;;;;;;;;14.23;83.52;100228.50;4438119;32;34820;-75
2022/09/23 08:23:40;;;;;;;;;;;;;;;14.30;78.43;100231.62;4447561;32;33736;-75
2022/09/23 08:26:27;;;;;;;;;;;;;;;14.49;76.01;100223.06;4431158;32;34942;-75
2022/09/23 08:29:14;;;;;;;;;;;;;;;14.72;77.82;100216.28;4430519;32;36067;-75
2022/09/23 08:32:00;;;;;;;;;;;;;;;14.97;78.36;100224.84;4423813;32;34919;-75
2022/09/23 08:34:46;;;;;;;;;;;;;;;14.43;80.38;100222.41;4448248;32;34908;-75
2022/09/23 08:37:32;;;;;;;;;;;;;;;14.99;78.70;100215.09;4446283;32;35017;-75
2022/09/23 08:40:18;;;;;;;;;;;;;;;14.92;79.31;100219.53;4443351;32;35029;-75
2022/09/23 08:43:05;;;;;;;;;;;;;;;14.84;79.37;100208.16;4429813;32;35147;-76
2022/09/23 08:45:52;;;;;;;;;;;;;;;15.24;76.65;100216.22;4442388;32;34032;-75
2022/09/23 08:48:41;;;;;;;;;;;;;;;15.51;76.89;100215.03;4433437;32;35733;-75
2022/09/23 08:51:35;;;;;;;;;;;;;;;16.13;73.95;100219.13;4429542;32;35216;-75
2022/09/23 08:54:22;;;;;;;;;;;;;;;15.89;75.16;100213.44;4422416;32;34826;-75
2022/09/23 08:57:09;;;;;;;;;;;;;;;15.25;77.38;100223.37;4423986;32;34016;-75
2022/09/23 08:59:55;;;;;;;;;;;;;;;15.85;73.86;100215.22;4431301;32;33480;-76
2022/09/23 09:10:15;;;;;;;;;;;;;;;16.93;70.04;100211.91;4431869;32;34063;-75
2022/09/23 09:13:08;;;;;;;;;;;;;;;16.81;70.99;100209.91;4423664;32;35098;-75
2022/09/23 09:16:08;;;;;;;;;;;;;;;17.53;68.93;100222.38;4434847;32;34885;-75
2022/09/23 09:18:54;;;;;;;;;;;;;;;17.88;65.84;100215.62;4421190;32;34931;-75
2022/09/23 09:21:41;;;;;;;;;;;;;;;17.80;65.42;100203.50;4422941;32;34765;-75
2022/09/23 09:24:30;;;;;;;;;;;;;;;18.60;63.12;100207.56;4435777;32;35603;-75
2022/09/23 09:27:16;;;;;;;;;;;;;;;18.47;62.85;100211.50;4435035;32;35199;-76
2022/09/23 09:30:02;;;;;;;;;;;;;;;17.82;63.44;100206.75;4436367;32;35646;-75
2022/09/23 09:33:16;;;;;;;;;;;;;;;18.03;61.71;100203.03;4436603;32;34145;-75
2022/09/23 09:36:37;;;;;;;;;;;;;;;17.56;66.14;100195.12;4448361;32;34613;-76
2022/09/23 09:39:26;;;;;;;;;;;;;;;18.97;59.85;100201.91;4414254;32;34874;-75
2022/09/23 09:42:17;;;;;;;;;;;;;;;16.85;64.19;100194.25;4446758;32;35052;-75
2022/09/23 09:45:05;;;;;;;;;;;;;;;17.62;63.16;100196.53;4435536;32;33943;-75
2022/09/23 09:48:04;;;;;;;;;;;;;;;18.14;60.83;100196.66;4423745;32;34547;-76
2022/09/23 09:50:51;;;;;;;;;;;;;;;17.68;63.28;100184.88;4436580;32;35215;-76
2022/09/23 09:53:37;;;;;;;8.70;5.60;;;;;;;17.77;63.33;100184.75;4447573;32;34892;-76
2022/09/23 09:56:26;;;;;;;;;;;;;;;16.97;64.94;100176.88;4436039;32;34831;-76
2022/09/23 09:59:16;;;;;;;;;;;;;;;18.82;60.12;100179.28;4447997;32;34680;-76
2022/09/23 10:02:33;;;;;;;8.63;5.00;;;;;;;20.02;56.52;100172.87;4425671;32;35239;-77
2022/09/23 10:05:27;;;;;;;8.80;5.20;;;;;;;21.23;50.97;100171.81;4447549;32;35356;-76
2022/09/23 10:08:24;;;;;;;9.05;5.12;;;;;;;21.28;47.16;100165.94;4434813;32;34688;-76
2022/09/23 10:11:17;;;;;;;10.07;4.53;;;;;;;21.99;46.45;100161.56;4435140;32;34352;-76
2022/09/23 10:14:17;;;;;;;8.27;4.85;;;;;;;22.01;47.48;100170.38;4446660;32;35006;-77
2022/09/23 10:17:05;;;;;;;7.05;4.45;;;;;;;20.14;49.29;100165.19;4437700;32;35579;-76
2022/09/23 10:19:59;;;;;;;7.25;4.35;;;;;;;21.05;47.50;100163.13;4448902;32;34136;-77
2022/09/23 10:23:08;;;;;;;;;;;;;;;21.86;41.97;100159.37;4432792;32;35621;-76
2022/09/23 10:26:02;;;;;;;6.68;3.70;;;;;;;21.79;45.57;100157.28;4422769;32;36084;-76
2022/09/23 10:28:51;;;;;;;7.07;4.05;;;;;;;22.37;40.87;100162.56;4437291;32;34533;-76
2022/09/23 10:31:38;;;;;;;7.05;3.75;;;;;;;22.91;41.81;100168.81;4426743;32;33808;-77
2022/09/23 10:34:26;;;;;;;7.68;3.60;;;;;;;22.55;39.23;100168.38;4423844;32;35426;-76
2022/09/23 10:37:20;;;;;;;6.45;3.58;;;;;;;21.79;39.77;100174.00;4436445;32;34538;-77
2022/09/23 10:46:37;;;;;;;8.55;4.22;;;;;;;21.82;41.29;100150.94;4446380;32;34481;-76
2022/09/23 10:47:05;;;;;;;7.18;4.72;;;;;;;21.70;42.32;100149.19;4434726;32;34572;-77
2022/09/23 10:50:03;;;;;;;8.50;4.62;;;;;;;21.79;41.87;100151.72;4448470;32;34063;-76
2022/09/23 10:53:14;;;;;;;7.35;4.20;;;;;;;20.63;44.81;100148.03;4446682;32;34617;-77
2022/09/23 10:56:35;;;;;;;7.05;3.65;;;;;;;20.43;43.33;100154.69;4436718;32;33279;-77
2022/09/23 10:59:31;;;;;;;6.45;3.97;;;;;;;19.92;42.85;100154.75;4428036;32;33836;-74
2022/09/23 11:02:39;;;;;;;6.55;4.22;;;;;;;18.90;44.70;100149.78;4421949;32;34018;-74
2022/09/23 11:05:31;;;;;;;6.12;3.58;;;;;;;18.10;47.13;100153.34;4413470;32;32074;-73
2022/09/23 11:08:26;;;;;;;6.10;3.60;;;;;;;19.38;44.12;100152.59;4432028;32;34007;-74
2022/09/23 11:11:42;;;;;;;6.70;3.20;;;;;;;19.39;45.60;100145.91;4434059;32;33323;-74
2022/09/23 11:14:54;;;;;;;7.07;3.53;;;;;;;19.58;46.87;100137.66;4434473;32;34976;-73
2022/09/23 11:17:46;;;;;;;7.45;3.50;;;;;;;18.61;46.27;100157.28;4425189;32;35012;-73
2022/09/23 11:20:44;;;;;;;6.62;3.72;;;;;;;17.97;49.49;100141.47;4435460;32;34145;-73
2022/09/23 11:24:26;;;;;;;5.85;3.78;;;;;;;18.29;49.83;100139.66;4434172;32;32875;-72
2022/09/23 11:27:51;;;;;;;6.90;3.50;;;;;;;17.85;48.38;100135.94;4367535;32;32607;-74
2022/09/23 11:31:10;;;;;;;6.72;3.70;;;;;;;18.24;48.75;100130.78;4408614;32;33232;-73
2022/09/23 11:34:39;;;;;;;6.05;3.53;;;;;;;17.95;49.41;100135.44;4419997;32;32676;-72
2022/09/23 11:37:34;;;;;;;5.83;3.50;;;;;;;18.96;49.16;100126.13;4423053;32;34729;-73
2022/09/23 11:40:30;;;;;;;6.07;3.40;;;;;;;19.03;51.42;100125.50;4427359;32;34972;-74
2022/09/23 11:43:24;;;;;;;6.78;4.30;;;;;;;19.43;53.17;100119.00;4436659;32;33954;-73
2022/09/23 11:46:22;;;;;;;6.32;4.00;;;;;;;19.30;51.55;100112.72;4439129;32;33536;-73
2022/09/23 11:49:27;;;;;;;7.78;5.15;;;;;;;19.68;47.78;100112.09;4425916;32;33813;-73
2022/09/23 11:52:18;;;;;;;7.20;4.87;;;;;;;19.67;46.64;100110.50;4436793;32;33832;-73
2022/09/23 11:55:17;;;;;;;6.12;4.22;;;;;;;19.16;47.59;100115.16;4434410;32;33796;-73
2022/09/23 11:58:17;;;;;;;6.18;4.18;;;;;;;18.14;51.63;100104.34;4436804;32;33116;-73
2022/09/23 12:01:25;;;;;;;7.43;4.40;;;;;;;18.34;50.48;100103.34;4435301;32;34485;-73
2022/09/23 12:04:29;;;;;;;6.93;4.55;;;;;;;19.22;48.70;100102.59;4434205;32;33712;-73
2022/09/23 12:07:19;;;;;;;8.73;4.45;;;;;;;18.73;47.96;100105.66;4444180;32;33844;-73
2022/09/23 12:10:07;;;;;;;6.72;3.85;;;;;;;19.05;47.72;100099.00;4423194;32;34275;-73
2022/09/23 12:13:31;;;;;;;7.18;4.25;;;;;;;19.65;45.36;100089.75;4433966;32;33815;-73
2022/09/23 12:16:52;;;;;;;6.37;3.75;;;;;;;19.80;44.18;100088.94;4444616;32;34804;-73
2022/09/23 12:20:04;;;;;;;5.90;3.50;;;;;;;19.64;42.35;100077.84;4448742;32;33253;-73
2022/09/23 12:23:03;;;;;;;5.62;3.40;;;;;;;19.53;44.60;100083.12;4448020;32;33489;-73
2022/09/23 12:26:03;;;;;;;6.15;3.70;;;;;;;20.06;44.71;100074.41;4445384;32;34698;-73
2022/09/23 12:28:53;;;;;;;5.70;3.65;;;;;;;20.84;45.02;100075.22;4425651;32;32429;-73
2022/09/23 12:31:40;;;;;;;6.10;3.72;;;;;;;21.45;42.55;100064.34;4424557;32;174257;-74
2022/09/23 12:34:40;;;;;;;6.12;3.83;;;;;;;21.63;41.67;100064.59;4444582;32;32963;-73
2022/09/23 12:37:36;;;;;;;6.07;3.87;;;;;;;22.08;40.44;100065.62;4445755;32;34608;-74
2022/09/23 12:40:43;;;;;;;5.47;3.93;;;;;;;22.88;37.21;100055.84;4432147;32;34713;-73
2022/09/23 12:43:36;;;;;;;6.72;4.50;;;;;;;22.78;38.31;100056.53;4434495;32;33890;-74
2022/09/23 12:46:24;;;;;;;10.52;3.80;;;;;;;22.02;39.38;100054.78;4424318;32;33581;-73
2022/09/23 12:49:27;;;;;;;5.87;3.87;;;;;;;22.44;38.63;100053.75;4423435;32;33729;-74
2022/09/23 12:52:17;;;;;;;7.82;4.30;;;;;;;23.03;36.70;100050.41;4446319;32;35031;-74
2022/09/23 12:55:33;;;;;;;5.18;3.72;;;;;;;23.51;35.27;100037.22;4434563;32;34413;-74
2022/09/23 12:58:57;;;;;;;6.70;4.03;;;;;;;23.34;34.31;100037.88;4446063;32;32192;-74
2022/09/23 13:01:43;;;;;;;6.55;3.55;;;;;;;23.61;34.33;100030.06;4435108;32;34399;-73
2022/09/23 13:07:43;;;;;;;6.57;3.53;;;;;;;21.90;36.08;100024.34;4446955;32;34314;-74
2022/09/23 13:10:38;;;;;;;4.93;3.40;;;;;;;23.43;34.34;100017.97;4434949;32;33235;-74
2022/09/23 13:13:30;;;;;;;5.35;3.15;;;;;;;23.42;33.26;100019.16;4432512;32;34735;-75
2022/09/23 13:16:33;;;;;;;3.72;2.70;;;;;;;23.04;34.34;100019.28;4434216;32;34072;-73
2022/09/23 13:19:25;;;;;;;3.17;2.30;;;;;;;21.71;33.76;100016.13;4434975;32;33740;-73
2022/09/23 13:22:12;;;;;;;3.30;1.92;;;;;;;19.76;37.17;100019.34;4434006;32;34299;-74
2022/09/23 13:25:00;;;;;;;2.97;1.70;;;;;;;20.21;37.26;100015.12;4422381;32;35068;-73
2022/09/23 13:27:48;;;;;;;3.58;1.80;;;;;;;19.98;35.17;100017.84;4434861;32;34853;-72
2022/09/23 13:30:34;;;;;;;2.30;1.20;;;;;;;19.56;38.77;100017.69;4433644;32;33282;-72
2022/09/23 13:33:26;;;;;;;3.00;1.50;;;;;;;19.42;32.28;100012.59;4433679;32;32945;-73
2022/09/23 13:36:14;;;;;;;3.05;1.70;;;;;;;17.92;37.18;100014.97;4438573;32;34562;-73
2022/09/23 13:39:20;;;;;;;3.27;1.70;;;;;;;18.68;37.97;100020.66;4424195;32;34120;-73
2022/09/23 13:42:10;;;;;;;2.45;1.50;;;;;;;19.58;37.34;100008.97;4446762;32;33517;-73
2022/09/23 13:44:57;;;;;;;4.12;1.95;;;;;;;19.89;38.65;100019.22;4435683;32;33432;-72
2022/09/23 13:47:46;;;;;;;4.10;2.12;;;;;;;19.17;38.10;100009.22;4444105;32;34313;-72